sensor_id;sensor_type;location;lat;lon;timestamp;pressure;altitude;pressure_sealevel;temperature;humidity
68179;BME280;54998;42.656;23.382;2023-02-08T00:00:21;96403.22;;;-6.78;64.83
68179;BME280;54998;42.656;23.382;2023-02-08T00:02:47;96394.06;;;-6.69;64.56
68179;BME280;54998;42.656;23.382;2023-02-08T00:05:12;96394.06;;;-6.66;64.15
68179;BME280;54998;42.656;23.382;2023-02-08T00:07:38;96413.22;;;-6.54;63.95
68179;BME280;54998;42.656;23.382;2023-02-08T00:10:03;96412.38;;;-6.56;63.72
68179;BME280;54998;42.656;23.382;2023-02-08T00:12:31;96413.19;;;-6.60;63.67
68179;BME280;54998;42.656;23.382;2023-02-08T00:14:56;96418.19;;;-6.54;63.69
68179;BME280;54998;42.656;23.382;2023-02-08T00:17:22;96420.72;;;-6.42;63.66
68179;BME280;54998;42.656;23.382;2023-02-08T00:19:47;96419.03;;;-6.49;63.29
68179;BME280;54998;42.656;23.382;2023-02-08T00:22:12;96420.69;;;-6.51;63.34
68179;BME280;54998;42.656;23.382;2023-02-08T00:24:38;96419.84;;;-6.62;63.58
68179;BME280;54998;42.656;23.382;2023-02-08T00:27:03;96406.53;;;-6.55;63.60
68179;BME280;54998;42.656;23.382;2023-02-08T00:29:29;96430.69;;;-6.43;63.26
68179;BME280;54998;42.656;23.382;2023-02-08T00:31:55;96424.88;;;-6.34;63.13
68179;BME280;54998;42.656;23.382;2023-02-08T00:34:20;96430.69;;;-6.34;63.00
68179;BME280;54998;42.656;23.382;2023-02-08T00:36:46;96429.03;;;-6.52;63.29
68179;BME280;54998;42.656;23.382;2023-02-08T00:39:11;96436.50;;;-6.49;63.64
68179;BME280;54998;42.656;23.382;2023-02-08T00:41:37;96437.34;;;-6.59;63.72
68179;BME280;54998;42.656;23.382;2023-02-08T00:44:02;96440.66;;;-6.62;63.93
68179;BME280;54998;42.656;23.382;2023-02-08T00:46:27;96444.84;;;-6.56;63.68
68179;BME280;54998;42.656;23.382;2023-02-08T00:48:53;96448.19;;;-6.57;63.85
68179;BME280;54998;42.656;23.382;2023-02-08T00:51:18;96438.16;;;-6.60;64.02
68179;BME280;54998;42.656;23.382;2023-02-08T02:06:58;96471.47;;;-6.64;65.99
68179;BME280;54998;42.656;23.382;2023-02-08T02:09:30;96467.28;;;-6.64;66.03
68179;BME280;54998;42.656;23.382;2023-02-08T02:11:57;96472.31;;;-6.65;66.00
68179;BME280;54998;42.656;23.382;2023-02-08T02:14:23;96469.81;;;-6.62;66.06
68179;BME280;54998;42.656;23.382;2023-02-08T02:16:48;96481.47;;;-6.53;65.96
68179;BME280;54998;42.656;23.382;2023-02-08T02:19:23;96479.81;;;-6.50;65.64
68179;BME280;54998;42.656;23.382;2023-02-08T02:30:13;96496.47;;;-6.33;65.35
68179;BME280;54998;42.656;23.382;2023-02-08T02:35:35;96502.28;;;-6.47;65.99
68179;BME280;54998;42.656;23.382;2023-02-08T02:38:31;96498.94;;;-6.59;66.20
68179;BME280;54998;42.656;23.382;2023-02-08T02:46:32;96498.13;;;-6.54;66.68
68179;BME280;54998;42.656;23.382;2023-02-08T02:54:18;96500.53;;;-6.83;69.23
68179;BME280;54998;42.656;23.382;2023-02-08T02:56:48;96503.00;;;-6.92;69.59
68179;BME280;54998;42.656;23.382;2023-02-08T02:59:16;96504.66;;;-6.99;70.12
68179;BME280;54998;42.656;23.382;2023-02-08T03:01:43;96507.13;;;-7.04;70.63
68179;BME280;54998;42.656;23.382;2023-02-08T03:17:46;96507.03;;;-7.25;72.46
68179;BME280;54998;42.656;23.382;2023-02-08T03:23:08;96503.69;;;-7.32;72.53
68179;BME280;54998;42.656;23.382;2023-02-08T03:25:49;96502.03;;;-7.34;72.55
68179;BME280;54998;42.656;23.382;2023-02-08T03:28:23;96502.06;;;-7.28;72.35
68179;BME280;54998;42.656;23.382;2023-02-08T03:33:48;96500.38;;;-7.28;72.29
68179;BME280;54998;42.656;23.382;2023-02-08T03:36:22;96504.56;;;-7.24;72.46
68179;BME280;54998;42.656;23.382;2023-02-08T03:38:52;96522.72;;;-7.48;72.89
68179;BME280;54998;42.656;23.382;2023-02-08T03:41:21;96520.25;;;-7.45;72.89
68179;BME280;54998;42.656;23.382;2023-02-08T03:43:53;96517.78;;;-7.38;72.90
68179;BME280;54998;42.656;23.382;2023-02-08T03:46:39;96520.25;;;-7.40;73.22
68179;BME280;54998;42.656;23.382;2023-02-08T03:49:10;96526.13;;;-7.35;72.70
68179;BME280;54998;42.656;23.382;2023-02-08T03:51:38;96525.22;;;-7.46;72.95
68179;BME280;54998;42.656;23.382;2023-02-08T03:54:07;96528.53;;;-7.50;73.07
68179;BME280;54998;42.656;23.382;2023-02-08T03:57:15;96523.53;;;-7.52;73.48
68179;BME280;54998;42.656;23.382;2023-02-08T03:59:44;96527.72;;;-7.48;73.01
68179;BME280;54998;42.656;23.382;2023-02-08T04:02:16;96525.13;;;-7.61;73.33
68179;BME280;54998;42.656;23.382;2023-02-08T04:04:45;96524.28;;;-7.62;73.31
68179;BME280;54998;42.656;23.382;2023-02-08T04:07:12;96530.91;;;-7.72;73.25
68179;BME280;54998;42.656;23.382;2023-02-08T04:09:37;96536.63;;;-7.82;74.09
68179;BME280;54998;42.656;23.382;2023-02-08T04:12:03;96543.28;;;-7.76;73.95
68179;BME280;54998;42.656;23.382;2023-02-08T04:14:28;96542.47;;;-7.78;73.89
68179;BME280;54998;42.656;23.382;2023-02-08T04:16:54;96539.16;;;-7.77;74.02
68179;BME280;54998;42.656;23.382;2023-02-08T04:19:19;96534.97;;;-7.81;74.30
68179;BME280;54998;42.656;23.382;2023-02-08T04:21:45;96535.75;;;-7.86;74.52
68179;BME280;54998;42.656;23.382;2023-02-08T04:24:10;96539.13;;;-7.82;74.22
68179;BME280;54998;42.656;23.382;2023-02-08T04:26:35;96539.91;;;-7.86;74.09
68179;BME280;54998;42.656;23.382;2023-02-08T04:29:01;96541.53;;;-7.93;74.21
68179;BME280;54998;42.656;23.382;2023-02-08T04:31:26;96532.38;;;-7.94;74.12
68179;BME280;54998;42.656;23.382;2023-02-08T04:33:52;96545.66;;;-7.96;74.09
68179;BME280;54998;42.656;23.382;2023-02-08T04:36:17;96538.91;;;-8.08;74.04
68179;BME280;54998;42.656;23.382;2023-02-08T04:38:42;96551.34;;;-8.13;74.35
68179;BME280;54998;42.656;23.382;2023-02-08T04:41:08;96544.78;;;-7.98;74.57
68179;BME280;54998;42.656;23.382;2023-02-08T04:43:33;96548.91;;;-8.03;74.73
68179;BME280;54998;42.656;23.382;2023-02-08T04:45:59;96550.47;;;-8.13;74.59
68179;BME280;54998;42.656;23.382;2023-02-08T04:48:25;96547.13;;;-8.21;74.67
68179;BME280;54998;42.656;23.382;2023-02-08T04:50:54;96552.00;;;-8.29;74.51
68179;BME280;54998;42.656;23.382;2023-02-08T04:53:19;96561.09;;;-8.33;74.89
68179;BME280;54998;42.656;23.382;2023-02-08T04:55:45;96573.53;;;-8.40;75.26
68179;BME280;54998;42.656;23.382;2023-02-08T04:58:10;96583.47;;;-8.43;75.39
68179;BME280;54998;42.656;23.382;2023-02-08T05:00:36;96578.38;;;-8.54;75.55
68179;BME280;54998;42.656;23.382;2023-02-08T05:03:01;96593.31;;;-8.53;75.71
68179;BME280;54998;42.656;23.382;2023-02-08T05:05:27;96594.19;;;-8.49;75.87
68179;BME280;54998;42.656;23.382;2023-02-08T05:07:52;96589.84;;;-8.67;75.90
68179;BME280;54998;42.656;23.382;2023-02-08T05:10:18;96604.03;;;-8.60;76.15
68179;BME280;54998;42.656;23.382;2023-02-08T05:12:44;96599.91;;;-8.56;76.26
68179;BME280;54998;42.656;23.382;2023-02-08T05:15:09;96604.72;;;-8.70;76.54
68179;BME280;54998;42.656;23.382;2023-02-08T05:17:35;96610.44;;;-8.77;77.11
68179;BME280;54998;42.656;23.382;2023-02-08T05:20:01;96617.06;;;-8.79;77.39
68179;BME280;54998;42.656;23.382;2023-02-08T05:22:27;96613.75;;;-8.78;77.85
68179;BME280;54998;42.656;23.382;2023-02-08T05:24:52;96606.28;;;-8.78;78.07
68179;BME280;54998;42.656;23.382;2023-02-08T05:27:18;96611.25;;;-8.78;78.06
68179;BME280;54998;42.656;23.382;2023-02-08T05:29:43;96609.63;;;-8.78;78.29
68179;BME280;54998;42.656;23.382;2023-02-08T05:32:09;96615.41;;;-8.79;78.41
68179;BME280;54998;42.656;23.382;2023-02-08T05:34:36;96617.09;;;-8.76;78.18
68179;BME280;54998;42.656;23.382;2023-02-08T05:37:01;96613.72;;;-8.81;78.49
68179;BME280;54998;42.656;23.382;2023-02-08T05:39:26;96613.75;;;-8.80;78.35
68179;BME280;54998;42.656;23.382;2023-02-08T05:41:52;96617.13;;;-8.75;78.31
68179;BME280;54998;42.656;23.382;2023-02-08T05:44:17;96621.31;;;-8.71;78.21
68179;BME280;54998;42.656;23.382;2023-02-08T05:46:42;96626.38;;;-8.64;78.35
68179;BME280;54998;42.656;23.382;2023-02-08T05:49:08;96635.66;;;-8.48;78.33
68179;BME280;54998;42.656;23.382;2023-02-08T05:51:33;96635.78;;;-8.40;78.11
68179;BME280;54998;42.656;23.382;2023-02-08T05:53:59;96634.13;;;-8.37;78.07
68179;BME280;54998;42.656;23.382;2023-02-08T05:56:27;96630.03;;;-8.29;77.76
68179;BME280;54998;42.656;23.382;2023-02-08T05:58:53;96638.31;;;-8.31;77.71
68179;BME280;54998;42.656;23.382;2023-02-08T06:01:19;96629.09;;;-8.40;77.57
68179;BME280;54998;42.656;23.382;2023-02-08T06:03:45;96628.41;;;-8.28;77.94
68179;BME280;54998;42.656;23.382;2023-02-08T06:06:10;96628.78;;;-7.88;78.52
68179;BME280;54998;42.656;23.382;2023-02-08T06:08:36;96627.28;;;-7.74;77.27
68179;BME280;54998;42.656;23.382;2023-02-08T06:11:02;96623.13;;;-7.73;76.47
68179;BME280;54998;42.656;23.382;2023-02-08T06:13:28;96629.88;;;-7.57;76.21
68179;BME280;54998;42.656;23.382;2023-02-08T06:15:54;96625.81;;;-7.50;75.48
68179;BME280;54998;42.656;23.382;2023-02-08T06:18:20;96624.19;;;-7.44;75.10
68179;BME280;54998;42.656;23.382;2023-02-08T06:20:45;96627.91;;;-6.80;74.68
68179;BME280;54998;42.656;23.382;2023-02-08T06:23:10;96628.16;;;-5.94;71.42
68179;BME280;54998;42.656;23.382;2023-02-08T06:25:36;96631.44;;;-4.83;67.20
68179;BME280;54998;42.656;23.382;2023-02-08T06:28:02;96619.88;;;-3.48;64.07
68179;BME280;54998;42.656;23.382;2023-02-08T06:30:27;96628.41;;;-2.73;59.56
68179;BME280;54998;42.656;23.382;2023-02-08T06:32:53;96628.72;;;-1.13;56.15
68179;BME280;54998;42.656;23.382;2023-02-08T06:35:18;96632.56;;;1.06;50.27
68179;BME280;54998;42.656;23.382;2023-02-08T06:37:44;96635.75;;;1.14;47.02
68179;BME280;54998;42.656;23.382;2023-02-08T06:40:09;96640.97;;;-0.45;49.53
68179;BME280;54998;42.656;23.382;2023-02-08T06:42:35;96631.31;;;-0.70;50.20
68179;BME280;54998;42.656;23.382;2023-02-08T06:45:00;96641.31;;;-1.12;50.58
68179;BME280;54998;42.656;23.382;2023-02-08T06:47:26;96637.47;;;-1.92;53.02
68179;BME280;54998;42.656;23.382;2023-02-08T06:49:52;96635.31;;;-1.57;53.66
68179;BME280;54998;42.656;23.382;2023-02-08T06:52:18;96644.63;;;-0.18;50.63
68179;BME280;54998;42.656;23.382;2023-02-08T06:54:47;96641.06;;;-0.09;48.09
68179;BME280;54998;42.656;23.382;2023-02-08T06:57:13;96645.66;;;0.51;48.27
68179;BME280;54998;42.656;23.382;2023-02-08T06:59:39;96649.03;;;1.22;46.25
68179;BME280;54998;42.656;23.382;2023-02-08T07:02:12;96643.50;;;2.58;42.48
68179;BME280;54998;42.656;23.382;2023-02-08T07:04:38;96634.16;;;1.42;43.67
68179;BME280;54998;42.656;23.382;2023-02-08T07:07:03;96640.19;;;2.28;42.53
68179;BME280;54998;42.656;23.382;2023-02-08T07:09:29;96642.94;;;3.77;38.46
68179;BME280;54998;42.656;23.382;2023-02-08T07:11:54;96638.50;;;4.73;37.29
68179;BME280;54998;42.656;23.382;2023-02-08T07:14:19;96652.53;;;5.45;36.40
68179;BME280;54998;42.656;23.382;2023-02-08T07:16:45;96652.63;;;6.58;33.70
68179;BME280;54998;42.656;23.382;2023-02-08T07:19:10;96658.13;;;4.25;36.93
68179;BME280;54998;42.656;23.382;2023-02-08T07:21:35;96665.16;;;3.21;38.40
68179;BME280;54998;42.656;23.382;2023-02-08T07:24:22;96667.59;;;2.71;38.68
68179;BME280;54998;42.656;23.382;2023-02-08T07:27:05;96687.53;;;2.82;38.67
68179;BME280;54998;42.656;23.382;2023-02-08T07:29:33;96677.94;;;2.07;40.23
68179;BME280;54998;42.656;23.382;2023-02-08T07:32:00;96671.47;;;2.26;40.48
68179;BME280;54998;42.656;23.382;2023-02-08T07:34:28;96674.69;;;3.15;39.37
68179;BME280;54998;42.656;23.382;2023-02-08T07:36:54;96678.16;;;4.55;36.20
68179;BME280;54998;42.656;23.382;2023-02-08T07:39:19;96672.38;;;5.37;34.98
68179;BME280;54998;42.656;23.382;2023-02-08T07:41:44;96682.19;;;2.91;38.66
68179;BME280;54998;42.656;23.382;2023-02-08T07:44:10;96681.00;;;4.69;35.51
68179;BME280;54998;42.656;23.382;2023-02-08T07:46:35;96673.41;;;4.90;34.54
68179;BME280;54998;42.656;23.382;2023-02-08T07:49:00;96670.53;;;4.99;33.75
68179;BME280;54998;42.656;23.382;2023-02-08T07:51:26;96673.72;;;7.33;31.38
68179;BME280;54998;42.656;23.382;2023-02-08T07:53:51;96668.03;;;6.19;33.03
68179;BME280;54998;42.656;23.382;2023-02-08T07:56:17;96667.78;;;7.15;31.10
68179;BME280;54998;42.656;23.382;2023-02-08T07:58:42;96676.75;;;4.70;33.31
68179;BME280;54998;42.656;23.382;2023-02-08T08:01:08;96663.03;;;4.30;34.98
68179;BME280;54998;42.656;23.382;2023-02-08T08:03:33;96662.84;;;4.79;33.74
68179;BME280;54998;42.656;23.382;2023-02-08T08:05:59;96658.53;;;4.81;34.23
68179;BME280;54998;42.656;23.382;2023-02-08T08:08:24;96672.63;;;5.30;32.74
68179;BME280;54998;42.656;23.382;2023-02-08T08:10:49;96664.19;;;4.87;33.36
68179;BME280;54998;42.656;23.382;2023-02-08T08:13:15;96665.97;;;4.19;35.36
68179;BME280;54998;42.656;23.382;2023-02-08T08:15:40;96663.59;;;5.64;33.14
68179;BME280;54998;42.656;23.382;2023-02-08T08:18:06;96659.38;;;7.48;30.74
68179;BME280;54998;42.656;23.382;2023-02-08T08:20:32;96653.38;;;6.42;30.68
68179;BME280;54998;42.656;23.382;2023-02-08T08:22:59;96661.16;;;6.94;30.71
68179;BME280;54998;42.656;23.382;2023-02-08T08:25:24;96662.44;;;8.85;28.32
68179;BME280;54998;42.656;23.382;2023-02-08T08:27:51;96668.06;;;6.55;30.10
68179;BME280;54998;42.656;23.382;2023-02-08T08:30:16;96671.34;;;6.21;30.69
68179;BME280;54998;42.656;23.382;2023-02-08T08:32:42;96675.94;;;2.75;35.24
68179;BME280;54998;42.656;23.382;2023-02-08T08:35:08;96674.00;;;6.56;31.06
68179;BME280;54998;42.656;23.382;2023-02-08T08:37:34;96666.81;;;7.01;29.80
68179;BME280;54998;42.656;23.382;2023-02-08T08:40:00;96674.22;;;5.94;31.10
68179;BME280;54998;42.656;23.382;2023-02-08T08:42:25;96674.34;;;6.48;31.19
68179;BME280;54998;42.656;23.382;2023-02-08T08:44:51;96674.06;;;7.60;28.60
68179;BME280;54998;42.656;23.382;2023-02-08T08:47:17;96677.75;;;7.72;29.04
68179;BME280;54998;42.656;23.382;2023-02-08T08:49:42;96683.66;;;8.71;27.03
68179;BME280;54998;42.656;23.382;2023-02-08T08:52:08;96675.31;;;9.44;25.79
68179;BME280;54998;42.656;23.382;2023-02-08T08:54:34;96677.81;;;9.60;25.76
68179;BME280;54998;42.656;23.382;2023-02-08T08:57:00;96685.16;;;8.10;28.03
68179;BME280;54998;42.656;23.382;2023-02-08T08:59:26;96695.69;;;7.88;28.69
68179;BME280;54998;42.656;23.382;2023-02-08T09:01:52;96704.94;;;8.40;27.90
68179;BME280;54998;42.656;23.382;2023-02-08T09:04:17;96692.16;;;8.56;26.93
68179;BME280;54998;42.656;23.382;2023-02-08T09:06:43;96692.94;;;9.04;26.45
68179;BME280;54998;42.656;23.382;2023-02-08T09:09:09;96703.22;;;6.68;29.07
68179;BME280;54998;42.656;23.382;2023-02-08T09:11:34;96706.88;;;5.23;30.29
68179;BME280;54998;42.656;23.382;2023-02-08T09:14:03;96714.47;;;1.98;35.36
68179;BME280;54998;42.656;23.382;2023-02-08T09:16:29;96714.34;;;3.42;34.06
68179;BME280;54998;42.656;23.382;2023-02-08T09:18:55;96715.34;;;3.12;33.66
68179;BME280;54998;42.656;23.382;2023-02-08T09:21:22;96716.63;;;4.24;31.37
68179;BME280;54998;42.656;23.382;2023-02-08T09:23:49;96719.34;;;2.36;34.48
68179;BME280;54998;42.656;23.382;2023-02-08T09:26:16;96722.44;;;3.54;33.28
68179;BME280;54998;42.656;23.382;2023-02-08T09:28:43;96716.63;;;1.82;35.60
68179;BME280;54998;42.656;23.382;2023-02-08T09:31:10;96718.31;;;2.43;36.43
68179;BME280;54998;42.656;23.382;2023-02-08T09:33:35;96716.81;;;5.50;32.14
68179;BME280;54998;42.656;23.382;2023-02-08T09:36:01;96713.19;;;5.35;32.04
68179;BME280;54998;42.656;23.382;2023-02-08T09:38:26;96708.81;;;6.19;30.80
68179;BME280;54998;42.656;23.382;2023-02-08T09:41:11;96705.56;;;5.55;30.07
68179;BME280;54998;42.656;23.382;2023-02-08T09:44:05;96709.59;;;6.95;29.11
68179;BME280;54998;42.656;23.382;2023-02-08T09:46:37;96706.44;;;4.91;30.51
68179;BME280;54998;42.656;23.382;2023-02-08T09:49:09;96702.22;;;3.25;34.25
68179;BME280;54998;42.656;23.382;2023-02-08T09:51:50;96697.94;;;2.74;35.41
68179;BME280;54998;42.656;23.382;2023-02-08T09:54:36;96699.81;;;3.47;34.36
68179;BME280;54998;42.656;23.382;2023-02-08T09:57:07;96707.03;;;4.98;31.67
68179;BME280;54998;42.656;23.382;2023-02-08T09:59:36;96701.88;;;5.42;31.28
68179;BME280;54998;42.656;23.382;2023-02-08T10:02:18;96702.56;;;5.66;30.52
68179;BME280;54998;42.656;23.382;2023-02-08T10:07:25;96689.03;;;7.51;27.92
68179;BME280;54998;42.656;23.382;2023-02-08T10:09:52;96689.59;;;6.12;29.37
68179;BME280;54998;42.656;23.382;2023-02-08T10:12:35;96691.78;;;5.39;30.03
68179;BME280;54998;42.656;23.382;2023-02-08T10:18:14;96699.97;;;0.33;37.84
68179;BME280;54998;42.656;23.382;2023-02-08T10:21:37;96702.47;;;0.35;39.26
68179;BME280;54998;42.656;23.382;2023-02-08T11:04:25;96700.56;;;0.43;38.42
68179;BME280;54998;42.656;23.382;2023-02-08T11:06:50;96706.50;;;0.02;39.12
68179;BME280;54998;42.656;23.382;2023-02-08T11:11:49;96708.69;;;0.18;38.53
68179;BME280;54998;42.656;23.382;2023-02-08T11:16:53;96704.78;;;0.81;37.53
68179;BME280;54998;42.656;23.382;2023-02-08T11:19:31;96694.19;;;0.66;38.30
68179;BME280;54998;42.656;23.382;2023-02-08T11:21:57;96703.41;;;0.29;39.10
68179;BME280;54998;42.656;23.382;2023-02-08T11:24:36;96700.53;;;0.04;40.03
68179;BME280;54998;42.656;23.382;2023-02-08T11:32:37;96695.09;;;0.63;40.96
68179;BME280;54998;42.656;23.382;2023-02-08T11:37:51;96698.78;;;-0.83;44.98
68179;BME280;54998;42.656;23.382;2023-02-08T11:40:27;96696.41;;;-1.46;46.53
68179;BME280;54998;42.656;23.382;2023-02-08T11:42:54;96693.63;;;-1.28;46.51
68179;BME280;54998;42.656;23.382;2023-02-08T11:45:26;96701.78;;;-1.12;44.53
68179;BME280;54998;42.656;23.382;2023-02-08T11:47:53;96703.66;;;-1.25;45.60
68179;BME280;54998;42.656;23.382;2023-02-08T11:50:37;96694.09;;;-1.60;45.20
68179;BME280;54998;42.656;23.382;2023-02-08T11:53:06;96694.09;;;-1.60;46.00
68179;BME280;54998;42.656;23.382;2023-02-08T11:55:33;96705.41;;;-1.90;46.37
68179;BME280;54998;42.656;23.382;2023-02-08T11:58:04;96704.59;;;-1.91;46.30
68179;BME280;54998;42.656;23.382;2023-02-08T12:00:35;96703.91;;;-1.41;45.43
68179;BME280;54998;42.656;23.382;2023-02-08T12:03:04;96706.56;;;-1.52;45.46
68179;BME280;54998;42.656;23.382;2023-02-08T12:16:41;96703.03;;;-2.01;47.55
68179;BME280;54998;42.656;23.382;2023-02-08T12:22:09;96703.34;;;-2.30;48.13
68179;BME280;54998;42.656;23.382;2023-02-08T12:50:13;96698.94;;;-2.08;44.72
68179;BME280;54998;42.656;23.382;2023-02-08T12:52:47;96698.38;;;-2.35;45.35
68179;BME280;54998;42.656;23.382;2023-02-08T12:55:22;96696.66;;;-2.30;44.15
68179;BME280;54998;42.656;23.382;2023-02-08T12:57:53;96705.63;;;-2.09;43.68
68179;BME280;54998;42.656;23.382;2023-02-08T13:02:57;96709.44;;;-1.78;41.36
68179;BME280;54998;42.656;23.382;2023-02-08T13:05:31;96709.22;;;-1.63;41.60
68179;BME280;54998;42.656;23.382;2023-02-08T13:08:06;96713.50;;;-1.68;42.74
68179;BME280;54998;42.656;23.382;2023-02-08T13:10:35;96715.47;;;-1.89;43.51
68179;BME280;54998;42.656;23.382;2023-02-08T13:13:12;96712.91;;;-1.86;42.87
68179;BME280;54998;42.656;23.382;2023-02-08T13:15:44;96723.09;;;-1.95;43.20
68179;BME280;54998;42.656;23.382;2023-02-08T13:18:13;96725.41;;;-1.81;42.22
68179;BME280;54998;42.656;23.382;2023-02-08T13:21:16;96727.03;;;-1.75;42.42
68179;BME280;54998;42.656;23.382;2023-02-08T13:23:46;96729.44;;;-1.66;41.43
68179;BME280;54998;42.656;23.382;2023-02-08T13:26:26;96729.44;;;-1.68;41.08
68179;BME280;54998;42.656;23.382;2023-02-08T13:28:54;96739.41;;;-1.60;40.26
68179;BME280;54998;42.656;23.382;2023-02-08T13:36:40;96738.88;;;-1.83;40.76
68179;BME280;54998;42.656;23.382;2023-02-08T13:41:53;96746.72;;;-2.08;40.66
68179;BME280;54998;42.656;23.382;2023-02-08T13:44:25;96738.13;;;-1.92;41.00
68179;BME280;54998;42.656;23.382;2023-02-08T13:46:52;96739.19;;;-2.13;43.46
68179;BME280;54998;42.656;23.382;2023-02-08T13:52:11;96742.28;;;-2.71;46.15
68179;BME280;54998;42.656;23.382;2023-02-08T13:54:37;96764.75;;;-2.53;46.06
68179;BME280;54998;42.656;23.382;2023-02-08T14:03:01;96757.66;;;-3.08;47.85
68179;BME280;54998;42.656;23.382;2023-02-08T14:08:20;96758.63;;;-3.26;47.93
68179;BME280;54998;42.656;23.382;2023-02-08T14:13:40;96762.72;;;-3.10;48.20
68179;BME280;54998;42.656;23.382;2023-02-08T14:18:59;96755.44;;;-3.53;49.45
68179;BME280;54998;42.656;23.382;2023-02-08T14:24:07;96763.16;;;-3.96;51.04
68179;BME280;54998;42.656;23.382;2023-02-08T14:26:43;96771.50;;;-3.90;51.24
68179;BME280;54998;42.656;23.382;2023-02-08T14:29:19;96759.84;;;-3.95;51.85
68179;BME280;54998;42.656;23.382;2023-02-08T14:31:46;96768.16;;;-3.89;52.11
68179;BME280;54998;42.656;23.382;2023-02-08T14:34:27;96772.34;;;-3.93;52.36
68179;BME280;54998;42.656;23.382;2023-02-08T14:37:27;96772.41;;;-4.05;52.54
68179;BME280;54998;42.656;23.382;2023-02-08T14:43:00;96776.63;;;-4.26;53.55
68179;BME280;54998;42.656;23.382;2023-02-08T14:45:28;96768.25;;;-4.16;53.58
68179;BME280;54998;42.656;23.382;2023-02-08T14:48:04;96773.25;;;-4.19;53.88
68179;BME280;54998;42.656;23.382;2023-02-08T14:50:41;96771.66;;;-4.40;53.98
68179;BME280;54998;42.656;23.382;2023-02-08T14:53:18;96764.16;;;-4.44;54.28
68179;BME280;54998;42.656;23.382;2023-02-08T14:55:58;96778.28;;;-4.23;54.04
68179;BME280;54998;42.656;23.382;2023-02-08T14:58:31;96784.13;;;-4.15;53.93
68179;BME280;54998;42.656;23.382;2023-02-08T15:01:00;96783.28;;;-4.13;53.87
68179;BME280;54998;42.656;23.382;2023-02-08T15:03:29;96785.78;;;-4.03;53.42
68179;BME280;54998;42.656;23.382;2023-02-08T15:06:01;96794.13;;;-4.03;53.38
68179;BME280;54998;42.656;23.382;2023-02-08T15:08:30;96797.50;;;-4.15;53.12
68179;BME280;54998;42.656;23.382;2023-02-08T15:10:56;96790.00;;;-4.19;53.08
68179;BME280;54998;42.656;23.382;2023-02-08T15:13:22;96788.34;;;-4.20;53.07
68179;BME280;54998;42.656;23.382;2023-02-08T15:15:54;96785.06;;;-4.53;53.47
68179;BME280;54998;42.656;23.382;2023-02-08T15:18:27;96799.25;;;-4.60;53.81
68179;BME280;54998;42.656;23.382;2023-02-08T15:21:12;96785.88;;;-4.54;53.48
68179;BME280;54998;42.656;23.382;2023-02-08T15:23:39;96792.59;;;-4.64;53.73
68179;BME280;54998;42.656;23.382;2023-02-08T15:26:25;96792.56;;;-4.71;54.18
68179;BME280;54998;42.656;23.382;2023-02-08T15:28:51;96802.59;;;-4.64;53.84
68179;BME280;54998;42.656;23.382;2023-02-08T15:31:36;96801.75;;;-4.66;54.17
68179;BME280;54998;42.656;23.382;2023-02-08T15:34:01;96795.09;;;-4.79;54.05
68179;BME280;54998;42.656;23.382;2023-02-08T15:36:32;96799.25;;;-4.83;54.12
68179;BME280;54998;42.656;23.382;2023-02-08T15:39:02;96796.75;;;-4.81;53.94
68179;BME280;54998;42.656;23.382;2023-02-08T15:41:32;96792.59;;;-4.90;54.46
68179;BME280;54998;42.656;23.382;2023-02-08T15:46:46;96792.56;;;-4.96;54.63
68179;BME280;54998;42.656;23.382;2023-02-08T15:49:19;96802.59;;;-4.98;55.08
68179;BME280;54998;42.656;23.382;2023-02-08T15:51:46;96804.25;;;-4.98;55.51
68179;BME280;54998;42.656;23.382;2023-02-08T15:54:17;96795.91;;;-5.05;54.79
68179;BME280;54998;42.656;23.382;2023-02-08T15:59:30;96790.84;;;-5.32;55.37
68179;BME280;54998;42.656;23.382;2023-02-08T16:04:44;96800.91;;;-5.25;55.21
68179;BME280;54998;42.656;23.382;2023-02-08T16:07:22;96809.22;;;-5.21;55.45
68179;BME280;54998;42.656;23.382;2023-02-08T16:09:48;96803.41;;;-5.25;55.37
68179;BME280;54998;42.656;23.382;2023-02-08T16:12:20;96808.34;;;-5.34;55.50
68179;BME280;54998;42.656;23.382;2023-02-08T16:14:46;96810.03;;;-5.31;55.79
68179;BME280;54998;42.656;23.382;2023-02-08T16:17:37;96816.72;;;-5.35;55.45
68179;BME280;54998;42.656;23.382;2023-02-08T16:20:22;96819.19;;;-5.46;56.14
68179;BME280;54998;42.656;23.382;2023-02-08T16:22:59;96817.50;;;-5.48;56.18
68179;BME280;54998;42.656;23.382;2023-02-08T16:25:42;96821.69;;;-5.44;56.25
68179;BME280;54998;42.656;23.382;2023-02-08T16:28:30;96815.84;;;-5.46;56.39
68179;BME280;54998;42.656;23.382;2023-02-08T16:30:58;96823.31;;;-5.51;55.85
68179;BME280;54998;42.656;23.382;2023-02-08T16:33:25;96824.19;;;-5.50;55.97
68179;BME280;54998;42.656;23.382;2023-02-08T16:35:51;96819.16;;;-5.57;56.10
68179;BME280;54998;42.656;23.382;2023-02-08T16:38:20;96825.00;;;-5.51;55.67
68179;BME280;54998;42.656;23.382;2023-02-08T16:40:50;96818.28;;;-5.62;56.18
68179;BME280;54998;42.656;23.382;2023-02-08T16:43:24;96826.66;;;-5.61;56.36
68179;BME280;54998;42.656;23.382;2023-02-08T16:51:02;96826.56;;;-5.75;56.87
68179;BME280;54998;42.656;23.382;2023-02-08T16:53:29;96839.09;;;-5.72;57.08
68179;BME280;54998;42.656;23.382;2023-02-08T16:55:56;96832.41;;;-5.81;57.62
68179;BME280;54998;42.656;23.382;2023-02-08T16:58:22;96838.25;;;-5.74;57.40
68179;BME280;54998;42.656;23.382;2023-02-08T17:00:48;96840.75;;;-5.71;57.57
68179;BME280;54998;42.656;23.382;2023-02-08T17:03:13;96836.59;;;-5.73;57.65
68179;BME280;54998;42.656;23.382;2023-02-08T17:05:40;96839.06;;;-5.78;57.96
68179;BME280;54998;42.656;23.382;2023-02-08T17:08:09;96839.94;;;-5.71;57.76
68179;BME280;54998;42.656;23.382;2023-02-08T17:10:37;96847.41;;;-5.78;58.08
68179;BME280;54998;42.656;23.382;2023-02-08T17:13:03;96844.84;;;-5.88;58.10
68179;BME280;54998;42.656;23.382;2023-02-08T17:15:30;96839.03;;;-5.92;58.86
68179;BME280;54998;42.656;23.382;2023-02-08T17:17:55;96842.34;;;-5.97;59.00
68179;BME280;54998;42.656;23.382;2023-02-08T17:20:23;96846.50;;;-5.93;58.59
68179;BME280;54998;42.656;23.382;2023-02-08T17:22:50;96842.31;;;-5.99;58.54